sensor_id;sensor_type;location;lat;lon;timestamp;temperature;humidity
9425;DHT22;17139;52.140;11.636;2023-03-23T00:01:26;11.10;54.70
9425;DHT22;17139;52.140;11.636;2023-03-23T00:03:57;11.10;55.30
9425;DHT22;17139;52.140;11.636;2023-03-23T00:06:25;11.90;53.20
9425;DHT22;17139;52.140;11.636;2023-03-23T00:08:54;11.80;53.20
9425;DHT22;17139;52.140;11.636;2023-03-23T00:11:26;11.50;53.70
9425;DHT22;17139;52.140;11.636;2023-03-23T00:13:57;11.40;54.10
9425;DHT22;17139;52.140;11.636;2023-03-23T00:16:28;11.40;54.30
9425;DHT22;17139;52.140;11.636;2023-03-23T00:18:57;11.30;54.30
9425;DHT22;17139;52.140;11.636;2023-03-23T00:21:27;11.30;54.30
9425;DHT22;17139;52.140;11.636;2023-03-23T00:23:59;11.30;54.30
9425;DHT22;17139;52.140;11.636;2023-03-23T00:26:26;11.30;54.20
9425;DHT22;17139;52.140;11.636;2023-03-23T00:28:56;11.30;54.20
9425;DHT22;17139;52.140;11.636;2023-03-23T00:31:26;11.60;53.70
9425;DHT22;17139;52.140;11.636;2023-03-23T00:33:57;11.90;53.20
9425;DHT22;17139;52.140;11.636;2023-03-23T00:36:27;11.80;53.20
9425;DHT22;17139;52.140;11.636;2023-03-23T00:38:55;11.60;53.50
9425;DHT22;17139;52.140;11.636;2023-03-23T00:41:25;11.60;53.80
9425;DHT22;17139;52.140;11.636;2023-03-23T00:43:55;11.50;53.80
9425;DHT22;17139;52.140;11.636;2023-03-23T00:46:23;11.50;54.00
9425;DHT22;17139;52.140;11.636;2023-03-23T00:48:51;11.50;54.10
9425;DHT22;17139;52.140;11.636;2023-03-23T00:51:18;11.40;54.10
9425;DHT22;17139;52.140;11.636;2023-03-23T00:53:45;11.40;54.10
9425;DHT22;17139;52.140;11.636;2023-03-23T00:56:13;12.20;52.30
9425;DHT22;17139;52.140;11.636;2023-03-23T00:58:41;12.00;52.60
9425;DHT22;17139;52.140;11.636;2023-03-23T01:01:10;11.80;53.10
9425;DHT22;17139;52.140;11.636;2023-03-23T01:03:37;11.70;53.40
9425;DHT22;17139;52.140;11.636;2023-03-23T01:06:06;11.60;53.60
9425;DHT22;17139;52.140;11.636;2023-03-23T01:08:34;11.60;53.80
9425;DHT22;17139;52.140;11.636;2023-03-23T01:11:06;11.60;53.80
9425;DHT22;17139;52.140;11.636;2023-03-23T01:13:33;11.60;53.80
9425;DHT22;17139;52.140;11.636;2023-03-23T01:16:00;11.70;53.90
9425;DHT22;17139;52.140;11.636;2023-03-23T01:18:29;12.10;53.30
9425;DHT22;17139;52.140;11.636;2023-03-23T01:20:56;12.00;53.20
9425;DHT22;17139;52.140;11.636;2023-03-23T01:23:23;11.90;53.20
9425;DHT22;17139;52.140;11.636;2023-03-23T01:25:52;11.90;53.60
9425;DHT22;17139;52.140;11.636;2023-03-23T01:28:23;12.70;52.30
9425;DHT22;17139;52.140;11.636;2023-03-23T01:30:50;12.40;52.60
9425;DHT22;17139;52.140;11.636;2023-03-23T01:33:17;12.20;53.10
9425;DHT22;17139;52.140;11.636;2023-03-23T01:35:45;12.10;53.40
9425;DHT22;17139;52.140;11.636;2023-03-23T01:38:12;12.00;53.40
9425;DHT22;17139;52.140;11.636;2023-03-23T01:40:39;12.00;53.70
9425;DHT22;17139;52.140;11.636;2023-03-23T01:43:10;11.90;53.80
9425;DHT22;17139;52.140;11.636;2023-03-23T01:45:40;11.90;53.80
9425;DHT22;17139;52.140;11.636;2023-03-23T01:48:10;11.80;53.80
9425;DHT22;17139;52.140;11.636;2023-03-23T01:50:47;11.80;53.90
9425;DHT22;17139;52.140;11.636;2023-03-23T01:53:17;12.10;53.50
9425;DHT22;17139;52.140;11.636;2023-03-23T01:55:48;12.70;52.60
9425;DHT22;17139;52.140;11.636;2023-03-23T01:58:18;12.40;52.70
9425;DHT22;17139;52.140;11.636;2023-03-23T02:00:46;12.30;53.20
9425;DHT22;17139;52.140;11.636;2023-03-23T02:03:14;12.10;53.40
9425;DHT22;17139;52.140;11.636;2023-03-23T02:05:43;12.10;53.60
9425;DHT22;17139;52.140;11.636;2023-03-23T02:08:12;11.90;53.80
9425;DHT22;17139;52.140;11.636;2023-03-23T02:10:41;11.90;53.90
9425;DHT22;17139;52.140;11.636;2023-03-23T02:13:09;11.90;54.00
9425;DHT22;17139;52.140;11.636;2023-03-23T02:15:44;11.80;54.00
9425;DHT22;17139;52.140;11.636;2023-03-23T02:18:21;11.80;54.10
9425;DHT22;17139;52.140;11.636;2023-03-23T02:21:13;12.70;52.70
9425;DHT22;17139;52.140;11.636;2023-03-23T02:23:59;12.40;52.90
9425;DHT22;17139;52.140;11.636;2023-03-23T02:26:38;12.10;53.40
9425;DHT22;17139;52.140;11.636;2023-03-23T02:29:43;12.00;53.80
9425;DHT22;17139;52.140;11.636;2023-03-23T02:35:08;11.80;54.30
9425;DHT22;17139;52.140;11.636;2023-03-23T02:37:40;11.70;54.40
9425;DHT22;17139;52.140;11.636;2023-03-23T02:40:15;11.60;54.40
9425;DHT22;17139;52.140;11.636;2023-03-23T02:42:46;11.60;54.50
9425;DHT22;17139;52.140;11.636;2023-03-23T02:45:16;12.30;54.00
9425;DHT22;17139;52.140;11.636;2023-03-23T02:47:44;12.90;53.40
9425;DHT22;17139;52.140;11.636;2023-03-23T02:50:16;12.50;53.20
9425;DHT22;17139;52.140;11.636;2023-03-23T02:52:46;12.20;53.60
9425;DHT22;17139;52.140;11.636;2023-03-23T02:55:15;12.00;54.10
9425;DHT22;17139;52.140;11.636;2023-03-23T02:57:43;11.90;54.30
9425;DHT22;17139;52.140;11.636;2023-03-23T03:00:14;11.80;54.40
9425;DHT22;17139;52.140;11.636;2023-03-23T03:02:43;11.80;54.50
9425;DHT22;17139;52.140;11.636;2023-03-23T03:05:25;11.80;54.60
9425;DHT22;17139;52.140;11.636;2023-03-23T03:08:15;11.80;54.60
9425;DHT22;17139;52.140;11.636;2023-03-23T03:10:50;12.20;54.10
9425;DHT22;17139;52.140;11.636;2023-03-23T03:13:28;12.00;54.00
9425;DHT22;17139;52.140;11.636;2023-03-23T03:16:00;11.90;54.30
9425;DHT22;17139;52.140;11.636;2023-03-23T03:18:33;11.70;54.40
9425;DHT22;17139;52.140;11.636;2023-03-23T03:21:07;11.70;54.60
9425;DHT22;17139;52.140;11.636;2023-03-23T03:23:38;11.70;54.70
9425;DHT22;17139;52.140;11.636;2023-03-23T03:26:08;11.60;54.70
9425;DHT22;17139;52.140;11.636;2023-03-23T03:28:37;11.50;54.70
9425;DHT22;17139;52.140;11.636;2023-03-23T03:31:05;11.60;54.80
9425;DHT22;17139;52.140;11.636;2023-03-23T03:33:33;11.80;54.60
9425;DHT22;17139;52.140;11.636;2023-03-23T03:36:02;11.70;54.30
9425;DHT22;17139;52.140;11.636;2023-03-23T03:38:41;11.60;54.40
9425;DHT22;17139;52.140;11.636;2023-03-23T03:41:08;11.60;54.60
9425;DHT22;17139;52.140;11.636;2023-03-23T03:43:35;11.50;54.60
9425;DHT22;17139;52.140;11.636;2023-03-23T03:46:02;11.40;54.60
9425;DHT22;17139;52.140;11.636;2023-03-23T03:48:29;11.40;54.70
9425;DHT22;17139;52.140;11.636;2023-03-23T03:50:56;11.40;54.70
9425;DHT22;17139;52.140;11.636;2023-03-23T03:53:26;11.40;54.60
9425;DHT22;17139;52.140;11.636;2023-03-23T03:55:54;11.40;54.70
9425;DHT22;17139;52.140;11.636;2023-03-23T03:58:25;11.40;54.70
9425;DHT22;17139;52.140;11.636;2023-03-23T04:00:57;11.40;54.70
9425;DHT22;17139;52.140;11.636;2023-03-23T04:03:25;11.40;54.70
9425;DHT22;17139;52.140;11.636;2023-03-23T04:05:53;11.40;54.70
9425;DHT22;17139;52.140;11.636;2023-03-23T04:08:21;11.40;54.70
9425;DHT22;17139;52.140;11.636;2023-03-23T04:10:49;11.40;54.70
9425;DHT22;17139;52.140;11.636;2023-03-23T04:13:18;11.40;54.90
9425;DHT22;17139;52.140;11.636;2023-03-23T04:15:46;11.30;54.90
9425;DHT22;17139;52.140;11.636;2023-03-23T04:18:14;11.30;55.60
9425;DHT22;17139;52.140;11.636;2023-03-23T04:20:43;11.30;55.70
9425;DHT22;17139;52.140;11.636;2023-03-23T04:23:10;11.30;55.10
9425;DHT22;17139;52.140;11.636;2023-03-23T04:25:37;11.30;55.20
9425;DHT22;17139;52.140;11.636;2023-03-23T04:28:06;11.20;55.10
9425;DHT22;17139;52.140;11.636;2023-03-23T04:30:37;11.90;55.40
9425;DHT22;17139;52.140;11.636;2023-03-23T04:33:04;11.70;54.70
9425;DHT22;17139;52.140;11.636;2023-03-23T04:35:31;11.50;54.90
9425;DHT22;17139;52.140;11.636;2023-03-23T04:37:59;11.40;55.10
9425;DHT22;17139;52.140;11.636;2023-03-23T04:40:26;11.30;55.30
9425;DHT22;17139;52.140;11.636;2023-03-23T04:42:53;11.20;55.30
9425;DHT22;17139;52.140;11.636;2023-03-23T04:45:23;11.20;55.50
9425;DHT22;17139;52.140;11.636;2023-03-23T04:47:52;11.20;55.50
9425;DHT22;17139;52.140;11.636;2023-03-23T04:50:23;11.20;55.60
9425;DHT22;17139;52.140;11.636;2023-03-23T04:52:51;11.10;55.50
9425;DHT22;17139;52.140;11.636;2023-03-23T04:55:20;11.20;55.90
9425;DHT22;17139;52.140;11.636;2023-03-23T04:57:47;11.40;56.10
9425;DHT22;17139;52.140;11.636;2023-03-23T05:00:15;11.30;55.40
9425;DHT22;17139;52.140;11.636;2023-03-23T05:02:44;11.20;55.50
9425;DHT22;17139;52.140;11.636;2023-03-23T05:05:14;11.10;55.70
9425;DHT22;17139;52.140;11.636;2023-03-23T05:07:42;11.00;55.80
9425;DHT22;17139;52.140;11.636;2023-03-23T05:10:11;11.00;55.90
9425;DHT22;17139;52.140;11.636;2023-03-23T05:12:38;10.90;56.00
9425;DHT22;17139;52.140;11.636;2023-03-23T05:15:07;10.90;56.00
9425;DHT22;17139;52.140;11.636;2023-03-23T05:17:34;10.90;56.20
9425;DHT22;17139;52.140;11.636;2023-03-23T05:20:02;10.90;56.60
9425;DHT22;17139;52.140;11.636;2023-03-23T05:22:32;11.10;56.80
9425;DHT22;17139;52.140;11.636;2023-03-23T05:25:00;11.10;56.20
9425;DHT22;17139;52.140;11.636;2023-03-23T05:27:29;11.60;56.70
9425;DHT22;17139;52.140;11.636;2023-03-23T05:29:56;11.40;55.80
9425;DHT22;17139;52.140;11.636;2023-03-23T05:32:24;11.10;56.00
9425;DHT22;17139;52.140;11.636;2023-03-23T05:34:55;11.00;56.20
9425;DHT22;17139;52.140;11.636;2023-03-23T05:37:22;10.90;56.30
9425;DHT22;17139;52.140;11.636;2023-03-23T05:39:50;10.90;56.80
9425;DHT22;17139;52.140;11.636;2023-03-23T05:42:22;10.90;56.50
9425;DHT22;17139;52.140;11.636;2023-03-23T05:44:49;10.80;56.50
9425;DHT22;17139;52.140;11.636;2023-03-23T05:47:16;10.70;56.60
9425;DHT22;17139;52.140;11.636;2023-03-23T05:49:44;11.50;57.30
9425;DHT22;17139;52.140;11.636;2023-03-23T05:52:11;11.30;56.30
9425;DHT22;17139;52.140;11.636;2023-03-23T05:54:39;11.00;56.40
9425;DHT22;17139;52.140;11.636;2023-03-23T05:57:08;10.90;56.60
9425;DHT22;17139;52.140;11.636;2023-03-23T05:59:35;10.80;56.70
9425;DHT22;17139;52.140;11.636;2023-03-23T06:02:02;10.70;56.80
9425;DHT22;17139;52.140;11.636;2023-03-23T06:04:30;10.70;56.90
9425;DHT22;17139;52.140;11.636;2023-03-23T06:06:59;10.70;56.90
9425;DHT22;17139;52.140;11.636;2023-03-23T06:09:26;10.70;56.90
9425;DHT22;17139;52.140;11.636;2023-03-23T06:11:53;10.70;56.90
9425;DHT22;17139;52.140;11.636;2023-03-23T06:14:21;10.70;56.80
9425;DHT22;17139;52.140;11.636;2023-03-23T06:16:48;10.70;56.80
9425;DHT22;17139;52.140;11.636;2023-03-23T06:19:16;10.80;57.50
9425;DHT22;17139;52.140;11.636;2023-03-23T06:21:43;10.80;56.70
9425;DHT22;17139;52.140;11.636;2023-03-23T06:24:10;10.80;56.70
9425;DHT22;17139;52.140;11.636;2023-03-23T06:26:38;10.80;56.70
9425;DHT22;17139;52.140;11.636;2023-03-23T06:29:07;10.80;56.90
9425;DHT22;17139;52.140;11.636;2023-03-23T06:31:40;10.80;56.90
9425;DHT22;17139;52.140;11.636;2023-03-23T06:34:08;10.80;56.90
9425;DHT22;17139;52.140;11.636;2023-03-23T06:36:35;10.90;57.60
9425;DHT22;17139;52.140;11.636;2023-03-23T06:39:03;11.00;57.10
9425;DHT22;17139;52.140;11.636;2023-03-23T06:41:31;11.10;57.10
9425;DHT22;17139;52.140;11.636;2023-03-23T06:43:58;11.20;57.00
9425;DHT22;17139;52.140;11.636;2023-03-23T06:46:25;11.30;56.90
9425;DHT22;17139;52.140;11.636;2023-03-23T06:48:54;11.40;57.00
9425;DHT22;17139;52.140;11.636;2023-03-23T06:51:21;11.50;56.90
9425;DHT22;17139;52.140;11.636;2023-03-23T06:53:48;11.60;56.80
9425;DHT22;17139;52.140;11.636;2023-03-23T06:56:15;11.70;56.80
9425;DHT22;17139;52.140;11.636;2023-03-23T06:58:42;12.60;56.90
9425;DHT22;17139;52.140;11.636;2023-03-23T07:01:11;12.40;56.10
9425;DHT22;17139;52.140;11.636;2023-03-23T07:03:38;12.30;56.30
9425;DHT22;17139;52.140;11.636;2023-03-23T07:06:08;12.20;56.40
9425;DHT22;17139;52.140;11.636;2023-03-23T07:08:36;12.20;56.60
9425;DHT22;17139;52.140;11.636;2023-03-23T07:11:04;12.20;56.70
9425;DHT22;17139;52.140;11.636;2023-03-23T07:13:31;12.20;56.70
9425;DHT22;17139;52.140;11.636;2023-03-23T07:16:00;12.20;56.70
9425;DHT22;17139;52.140;11.636;2023-03-23T07:18:27;12.80;56.70
9425;DHT22;17139;52.140;11.636;2023-03-23T07:20:54;12.60;56.00
9425;DHT22;17139;52.140;11.636;2023-03-23T07:23:22;12.30;56.10
9425;DHT22;17139;52.140;11.636;2023-03-23T07:25:49;12.10;56.30
9425;DHT22;17139;52.140;11.636;2023-03-23T07:28:17;12.70;56.30
9425;DHT22;17139;52.140;11.636;2023-03-23T07:30:44;12.40;55.80
9425;DHT22;17139;52.140;11.636;2023-03-23T07:33:11;12.10;56.20
9425;DHT22;17139;52.140;11.636;2023-03-23T07:35:38;11.90;56.40
9425;DHT22;17139;52.140;11.636;2023-03-23T07:38:07;11.80;56.70
9425;DHT22;17139;52.140;11.636;2023-03-23T07:40:35;11.70;56.80
9425;DHT22;17139;52.140;11.636;2023-03-23T07:43:03;11.60;56.80
9425;DHT22;17139;52.140;11.636;2023-03-23T07:45:31;11.50;56.80
9425;DHT22;17139;52.140;11.636;2023-03-23T07:47:59;11.60;56.90
9425;DHT22;17139;52.140;11.636;2023-03-23T07:50:26;11.80;57.30
9425;DHT22;17139;52.140;11.636;2023-03-23T07:52:55;12.20;56.80
9425;DHT22;17139;52.140;11.636;2023-03-23T07:55:24;12.20;56.30
9425;DHT22;17139;52.140;11.636;2023-03-23T07:57:54;12.10;56.30
9425;DHT22;17139;52.140;11.636;2023-03-23T08:00:22;12.00;56.50
9425;DHT22;17139;52.140;11.636;2023-03-23T08:02:51;12.00;56.50
9425;DHT22;17139;52.140;11.636;2023-03-23T08:05:19;12.00;56.60
9425;DHT22;17139;52.140;11.636;2023-03-23T08:07:48;11.90;56.60
9425;DHT22;17139;52.140;11.636;2023-03-23T08:10:15;11.90;56.70
9425;DHT22;17139;52.140;11.636;2023-03-23T08:12:44;11.90;56.70
9425;DHT22;17139;52.140;11.636;2023-03-23T08:15:13;11.90;56.90
9425;DHT22;17139;52.140;11.636;2023-03-23T08:17:41;12.00;56.90
9425;DHT22;17139;52.140;11.636;2023-03-23T08:20:10;12.00;56.50
9425;DHT22;17139;52.140;11.636;2023-03-23T08:22:39;12.00;57.20
9425;DHT22;17139;52.140;11.636;2023-03-23T08:25:09;12.00;56.70
9425;DHT22;17139;52.140;11.636;2023-03-23T08:27:37;11.90;56.70
9425;DHT22;17139;52.140;11.636;2023-03-23T08:30:09;11.90;56.80
9425;DHT22;17139;52.140;11.636;2023-03-23T08:32:38;11.90;56.80
9425;DHT22;17139;52.140;11.636;2023-03-23T08:35:06;12.00;56.70
9425;DHT22;17139;52.140;11.636;2023-03-23T08:37:34;12.30;56.90
9425;DHT22;17139;52.140;11.636;2023-03-23T08:40:02;12.90;56.30
9425;DHT22;17139;52.140;11.636;2023-03-23T08:42:34;12.70;55.80
9425;DHT22;17139;52.140;11.636;2023-03-23T08:45:01;12.60;56.00
9425;DHT22;17139;52.140;11.636;2023-03-23T08:47:28;12.50;56.20
9425;DHT22;17139;52.140;11.636;2023-03-23T08:49:57;12.50;56.30
9425;DHT22;17139;52.140;11.636;2023-03-23T08:52:24;12.50;56.40
9425;DHT22;17139;52.140;11.636;2023-03-23T08:54:51;12.50;56.30
9425;DHT22;17139;52.140;11.636;2023-03-23T08:57:18;12.50;56.40
9425;DHT22;17139;52.140;11.636;2023-03-23T08:59:45;13.00;56.30
9425;DHT22;17139;52.140;11.636;2023-03-23T09:02:12;13.40;55.60
9425;DHT22;17139;52.140;11.636;2023-03-23T09:04:40;13.10;55.40
9425;DHT22;17139;52.140;11.636;2023-03-23T09:07:10;12.90;55.80
9425;DHT22;17139;52.140;11.636;2023-03-23T09:09:38;12.80;56.10
9425;DHT22;17139;52.140;11.636;2023-03-23T09:12:06;12.80;56.30
9425;DHT22;17139;52.140;11.636;2023-03-23T09:14:34;12.70;56.30
9425;DHT22;17139;52.140;11.636;2023-03-23T09:17:01;12.70;56.40
9425;DHT22;17139;52.140;11.636;2023-03-23T09:19:29;12.70;56.50
9425;DHT22;17139;52.140;11.636;2023-03-23T09:21:56;13.50;55.80
9425;DHT22;17139;52.140;11.636;2023-03-23T09:24:25;13.20;55.60
9425;DHT22;17139;52.140;11.636;2023-03-23T09:26:52;13.10;56.00
9425;DHT22;17139;52.140;11.636;2023-03-23T09:29:19;13.10;56.30
9425;DHT22;17139;52.140;11.636;2023-03-23T09:31:46;13.00;56.30
9425;DHT22;17139;52.140;11.636;2023-03-23T09:34:14;13.10;56.50
9425;DHT22;17139;52.140;11.636;2023-03-23T09:36:42;13.20;56.50
9425;DHT22;17139;52.140;11.636;2023-03-23T09:39:10;13.20;56.40
9425;DHT22;17139;52.140;11.636;2023-03-23T09:42:02;13.40;56.30
9425;DHT22;17139;52.140;11.636;2023-03-23T09:44:39;13.50;56.20
9425;DHT22;17139;52.140;11.636;2023-03-23T09:47:17;13.60;56.20
9425;DHT22;17139;52.140;11.636;2023-03-23T09:49:50;13.60;56.10
9425;DHT22;17139;52.140;11.636;2023-03-23T09:52:20;14.50;54.90
9425;DHT22;17139;52.140;11.636;2023-03-23T09:54:50;14.20;55.20
9425;DHT22;17139;52.140;11.636;2023-03-23T09:57:24;14.10;55.40
9425;DHT22;17139;52.140;11.636;2023-03-23T10:00:01;14.00;55.60
9425;DHT22;17139;52.140;11.636;2023-03-23T10:02:34;14.00;55.80
9425;DHT22;17139;52.140;11.636;2023-03-23T10:05:25;14.00;56.00
9425;DHT22;17139;52.140;11.636;2023-03-23T10:07:54;14.00;55.90
9425;DHT22;17139;52.140;11.636;2023-03-23T10:10:26;14.00;56.00
9425;DHT22;17139;52.140;11.636;2023-03-23T10:13:01;14.10;56.00
9425;DHT22;17139;52.140;11.636;2023-03-23T10:15:33;14.20;56.00
9425;DHT22;17139;52.140;11.636;2023-03-23T10:18:02;15.00;54.70
9425;DHT22;17139;52.140;11.636;2023-03-23T10:20:36;15.60;53.40
9425;DHT22;17139;52.140;11.636;2023-03-23T10:23:13;15.30;54.20
9425;DHT22;17139;52.140;11.636;2023-03-23T10:25:44;15.20;54.80
9425;DHT22;17139;52.140;11.636;2023-03-23T10:28:18;15.00;55.00
9425;DHT22;17139;52.140;11.636;2023-03-23T10:30:48;14.90;55.20
9425;DHT22;17139;52.140;11.636;2023-03-23T10:33:18;14.90;55.40
9425;DHT22;17139;52.140;11.636;2023-03-23T10:35:50;14.90;55.50
9425;DHT22;17139;52.140;11.636;2023-03-23T10:38:23;14.90;55.50
9425;DHT22;17139;52.140;11.636;2023-03-23T10:40:55;14.80;55.40
9425;DHT22;17139;52.140;11.636;2023-03-23T10:43:25;15.50;53.60
9425;DHT22;17139;52.140;11.636;2023-03-23T10:45:57;16.00;52.20
9425;DHT22;17139;52.140;11.636;2023-03-23T10:48:28;15.60;53.40
9425;DHT22;17139;52.140;11.636;2023-03-23T10:51:00;15.30;54.20
9425;DHT22;17139;52.140;11.636;2023-03-23T10:53:32;15.20;54.60
9425;DHT22;17139;52.140;11.636;2023-03-23T10:56:00;15.10;54.90
9425;DHT22;17139;52.140;11.636;2023-03-23T10:58:30;15.00;55.10
9425;DHT22;17139;52.140;11.636;2023-03-23T11:00:58;15.10;55.20
9425;DHT22;17139;52.140;11.636;2023-03-23T11:03:46;15.10;55.20
9425;DHT22;17139;52.140;11.636;2023-03-23T11:06:20;15.80;53.10
9425;DHT22;17139;52.140;11.636;2023-03-23T11:08:51;15.60;54.00
9425;DHT22;17139;52.140;11.636;2023-03-23T11:11:20;15.50;54.40
9425;DHT22;17139;52.140;11.636;2023-03-23T11:13:55;15.40;54.40
9425;DHT22;17139;52.140;11.636;2023-03-23T11:16:24;15.30;54.50
9425;DHT22;17139;52.140;11.636;2023-03-23T11:18:51;15.30;54.80
9425;DHT22;17139;52.140;11.636;2023-03-23T11:21:21;15.30;54.90
9425;DHT22;17139;52.140;11.636;2023-03-23T11:23:51;15.20;54.90
9425;DHT22;17139;52.140;11.636;2023-03-23T11:26:21;15.20;54.90
9425;DHT22;17139;52.140;11.636;2023-03-23T11:28:53;15.30;55.00
9425;DHT22;17139;52.140;11.636;2023-03-23T11:31:23;15.30;54.90
9425;DHT22;17139;52.140;11.636;2023-03-23T11:33:53;15.30;54.90
9425;DHT22;17139;52.140;11.636;2023-03-23T11:36:30;15.30;54.90
9425;DHT22;17139;52.140;11.636;2023-03-23T11:38:57;15.20;54.70
9425;DHT22;17139;52.140;11.636;2023-03-23T11:41:29;15.20;54.90
9425;DHT22;17139;52.140;11.636;2023-03-23T11:44:07;15.20;54.90
9425;DHT22;17139;52.140;11.636;2023-03-23T11:46:42;15.30;54.90
9425;DHT22;17139;52.140;11.636;2023-03-23T11:49:18;15.30;54.90
9425;DHT22;17139;52.140;11.636;2023-03-23T11:51:49;15.40;54.80
9425;DHT22;17139;52.140;11.636;2023-03-23T11:54:24;15.50;54.80
9425;DHT22;17139;52.140;11.636;2023-03-23T11:56:53;15.60;54.80
9425;DHT22;17139;52.140;11.636;2023-03-23T11:59:29;15.60;54.70
9425;DHT22;17139;52.140;11.636;2023-03-23T12:02:04;15.70;54.70
9425;DHT22;17139;52.140;11.636;2023-03-23T12:04:43;15.70;54.70
9425;DHT22;17139;52.140;11.636;2023-03-23T12:07:29;15.60;54.60
9425;DHT22;17139;52.140;11.636;2023-03-23T12:10:04;15.50;54.50
9425;DHT22;17139;52.140;11.636;2023-03-23T12:13:01;15.40;54.70
9425;DHT22;17139;52.140;11.636;2023-03-23T12:15:34;15.20;54.90
9425;DHT22;17139;52.140;11.636;2023-03-23T12:18:13;15.10;54.90
9425;DHT22;17139;52.140;11.636;2023-03-23T12:20:52;15.00;55.10
9425;DHT22;17139;52.140;11.636;2023-03-23T12:23:24;15.10;54.50
9425;DHT22;17139;52.140;11.636;2023-03-23T12:26:15;15.50;53.40
9425;DHT22;17139;52.140;11.636;2023-03-23T12:29:08;15.30;54.20
9425;DHT22;17139;52.140;11.636;2023-03-23T12:31:47;15.10;54.50
9425;DHT22;17139;52.140;11.636;2023-03-23T12:34:23;15.00;54.80
9425;DHT22;17139;52.140;11.636;2023-03-23T12:37:02;14.80;54.90
9425;DHT22;17139;52.140;11.636;2023-03-23T12:39:51;14.80;55.00
9425;DHT22;17139;52.140;11.636;2023-03-23T12:42:26;14.80;55.00
9425;DHT22;17139;52.140;11.636;2023-03-23T12:45:03;14.80;55.10
9425;DHT22;17139;52.140;11.636;2023-03-23T12:47:40;14.90;55.00
9425;DHT22;17139;52.140;11.636;2023-03-23T12:50:15;15.40;53.00
9425;DHT22;17139;52.140;11.636;2023-03-23T12:53:00;15.40;53.60
9425;DHT22;17139;52.140;11.636;2023-03-23T12:55:34;15.30;53.90
9425;DHT22;17139;52.140;11.636;2023-03-23T12:58:09;15.30;53.40
9425;DHT22;17139;52.140;11.636;2023-03-23T13:00:58;15.30;53.80
9425;DHT22;17139;52.140;11.636;2023-03-23T13:03:35;15.30;54.50
9425;DHT22;17139;52.140;11.636;2023-03-23T13:06:10;15.40;54.20
9425;DHT22;17139;52.140;11.636;2023-03-23T13:08:44;15.50;54.10
9425;DHT22;17139;52.140;11.636;2023-03-23T13:11:17;15.60;53.90
9425;DHT22;17139;52.140;11.636;2023-03-23T13:13:48;15.60;53.60
9425;DHT22;17139;52.140;11.636;2023-03-23T13:16:24;15.50;53.60
9425;DHT22;17139;52.140;11.636;2023-03-23T13:19:02;15.50;53.90
9425;DHT22;17139;52.140;11.636;2023-03-23T13:21:31;15.50;53.90
9425;DHT22;17139;52.140;11.636;2023-03-23T13:24:01;15.80;52.20
9425;DHT22;17139;52.140;11.636;2023-03-23T13:26:30;16.30;51.00
9425;DHT22;17139;52.140;11.636;2023-03-23T13:28:59;16.10;52.00
9425;DHT22;17139;52.140;11.636;2023-03-23T13:31:29;15.90;52.40
9425;DHT22;17139;52.140;11.636;2023-03-23T13:34:03;15.90;52.80
9425;DHT22;17139;52.140;11.636;2023-03-23T13:36:35;16.00;52.90
9425;DHT22;17139;52.140;11.636;2023-03-23T13:39:05;16.00;52.90
9425;DHT22;17139;52.140;11.636;2023-03-23T13:41:45;16.00;52.90
9425;DHT22;17139;52.140;11.636;2023-03-23T13:44:19;16.00;52.90
9425;DHT22;17139;52.140;11.636;2023-03-23T13:47:08;15.90;53.00
9425;DHT22;17139;52.140;11.636;2023-03-23T13:49:47;16.00;52.60
9425;DHT22;17139;52.140;11.636;2023-03-23T13:52:21;16.80;49.70
9425;DHT22;17139;52.140;11.636;2023-03-23T13:54:49;16.60;51.20
9425;DHT22;17139;52.140;11.636;2023-03-23T13:57:48;16.40;51.70
9425;DHT22;17139;52.140;11.636;2023-03-23T14:00:37;16.30;51.90
9425;DHT22;17139;52.140;11.636;2023-03-23T14:03:14;16.10;52.30
9425;DHT22;17139;52.140;11.636;2023-03-23T14:05:43;15.90;52.80
9425;DHT22;17139;52.140;11.636;2023-03-23T14:08:14;15.80;52.80
9425;DHT22;17139;52.140;11.636;2023-03-23T14:10:50;15.70;53.00
9425;DHT22;17139;52.140;11.636;2023-03-23T14:13:21;15.50;53.00
9425;DHT22;17139;52.140;11.636;2023-03-23T14:15:58;16.10;50.50
9425;DHT22;17139;52.140;11.636;2023-03-23T14:18:30;16.60;48.90
9425;DHT22;17139;52.140;11.636;2023-03-23T14:20:59;16.10;50.80
9425;DHT22;17139;52.140;11.636;2023-03-23T14:23:27;16.50;49.00
9425;DHT22;17139;52.140;11.636;2023-03-23T14:25:55;16.30;50.60
9425;DHT22;17139;52.140;11.636;2023-03-23T14:28:26;16.40;50.00
9425;DHT22;17139;52.140;11.636;2023-03-23T14:30:54;16.20;50.90
9425;DHT22;17139;52.140;11.636;2023-03-23T14:33:25;16.20;50.90
9425;DHT22;17139;52.140;11.636;2023-03-23T14:35:52;16.30;50.40
9425;DHT22;17139;52.140;11.636;2023-03-23T14:38:23;16.10;51.20
9425;DHT22;17139;52.140;11.636;2023-03-23T14:40:54;16.00;51.60
9425;DHT22;17139;52.140;11.636;2023-03-23T14:43:22;15.80;51.90
9425;DHT22;17139;52.140;11.636;2023-03-23T14:46:00;15.80;52.10
9425;DHT22;17139;52.140;11.636;2023-03-23T14:48:28;15.90;52.10
9425;DHT22;17139;52.140;11.636;2023-03-23T14:50:57;15.90;52.10
9425;DHT22;17139;52.140;11.636;2023-03-23T14:53:32;16.00;52.20
9425;DHT22;17139;52.140;11.636;2023-03-23T14:56:01;16.40;50.70
9425;DHT22;17139;52.140;11.636;2023-03-23T14:58:30;16.80;49.50
9425;DHT22;17139;52.140;11.636;2023-03-23T15:00:59;16.60;50.40
9425;DHT22;17139;52.140;11.636;2023-03-23T15:03:30;16.50;51.00
9425;DHT22;17139;52.140;11.636;2023-03-23T15:06:00;16.30;51.40
9425;DHT22;17139;52.140;11.636;2023-03-23T15:08:32;16.10;51.70
9425;DHT22;17139;52.140;11.636;2023-03-23T15:11:07;16.00;51.90
9425;DHT22;17139;52.140;11.636;2023-03-23T15:13:35;15.90;52.00
9425;DHT22;17139;52.140;11.636;2023-03-23T15:16:11;15.90;52.10
9425;DHT22;17139;52.140;11.636;2023-03-23T15:18:40;16.40;50.10
9425;DHT22;17139;52.140;11.636;2023-03-23T15:21:17;16.20;51.20
9425;DHT22;17139;52.140;11.636;2023-03-23T15:23:47;16.00;51.70
9425;DHT22;17139;52.140;11.636;2023-03-23T15:26:27;15.90;52.20
9425;DHT22;17139;52.140;11.636;2023-03-23T15:29:14;16.60;49.50
9425;DHT22;17139;52.140;11.636;2023-03-23T15:31:44;16.20;50.60
9425;DHT22;17139;52.140;11.636;2023-03-23T15:34:17;15.90;51.50
9425;DHT22;17139;52.140;11.636;2023-03-23T15:36:46;16.20;50.20
9425;DHT22;17139;52.140;11.636;2023-03-23T15:39:18;16.20;50.30
9425;DHT22;17139;52.140;11.636;2023-03-23T15:41:48;15.90;51.10
9425;DHT22;17139;52.140;11.636;2023-03-23T15:44:30;15.70;51.70
9425;DHT22;17139;52.140;11.636;2023-03-23T15:47:13;15.50;51.80
9425;DHT22;17139;52.140;11.636;2023-03-23T15:49:41;16.20;49.80
9425;DHT22;17139;52.140;11.636;2023-03-23T15:52:10;15.80;51.00
9425;DHT22;17139;52.140;11.636;2023-03-23T15:54:46;15.50;51.80
9425;DHT22;17139;52.140;11.636;2023-03-23T15:57:13;15.30;52.30